Time;durP1;ratioP1;P1;durP2;ratioP2;P2;SDS_P1;SDS_P2;PMS_P1;PMS_P2;Temp;Humidity;BMP_temperature;BMP_pressure;BME280_temperature;BME280_humidity;BME280_pressure;Samples;Min_cycle;Max_cycle;Signal;HPM_P1;HPM_P2
2023/09/26 00:01:28;;;;;;;;;;;24.40;99.90;;;;;;5037434;23;19925;-48
2023/09/26 00:03:54;;;;;;;;;;;24.30;99.90;;;;;;5032760;28;19905;-50
2023/09/26 00:06:24;;;;;;;;;;;24.40;99.90;;;;;;5032620;28;19905;-47
2023/09/26 00:08:52;;;;;;;;;;;24.40;99.90;;;;;;5032668;28;20349;-48
2023/09/26 00:11:18;;;;;;;;;;;24.40;99.90;;;;;;5032658;28;20321;-50
2023/09/26 00:13:44;;;;;;;;;;;24.40;99.90;;;;;;5032555;28;19909;-48
2023/09/26 00:16:10;;;;;;;;;;;24.40;99.90;;;;;;5032442;28;20024;-50
2023/09/26 00:18:35;;;;;;;;;;;24.40;99.90;;;;;;5014916;28;19967;-47
2023/09/26 00:21:01;;;;;;;;;;;24.40;99.90;;;;;;5032754;28;19917;-48
2023/09/26 00:23:27;;;;;;;;;;;24.40;99.90;;;;;;5032663;28;19909;-48
2023/09/26 00:25:52;;;;;;;;;;;24.40;99.90;;;;;;5032438;28;19905;-48
2023/09/26 00:28:18;;;;;;;;;;;24.40;99.90;;;;;;5032426;28;19905;-48
2023/09/26 00:30:43;;;;;;;;;;;24.40;99.90;;;;;;5032418;28;19905;-50
2023/09/26 00:33:09;;;;;;;;;;;24.40;99.90;;;;;;5032427;28;19964;-49
2023/09/26 00:35:35;;;;;;;;;;;24.40;99.90;;;;;;5032398;28;19908;-50
2023/09/26 00:38:01;;;;;;;;;;;24.40;99.90;;;;;;5018155;28;20417;-49
2023/09/26 00:40:26;;;;;;;;;;;24.40;99.90;;;;;;5036238;28;20263;-48
2023/09/26 00:42:52;;;;;;;;;;;24.40;99.90;;;;;;5036203;28;19905;-48
2023/09/26 00:45:18;;;;;;;;;;;24.50;99.90;;;;;;5036105;28;19905;-48
2023/09/26 00:47:44;;;;;;;;;;;24.50;99.90;;;;;;5036383;28;19905;-48
2023/09/26 00:50:13;;;;;;;;;;;24.50;99.90;;;;;;5036253;28;19905;-48
2023/09/26 00:52:46;;;;;;;;;;;24.50;99.90;;;;;;5018281;28;19909;-48
2023/09/26 00:55:13;;;;;;;;;;;24.50;99.90;;;;;;5036337;28;19909;-48
2023/09/26 00:57:39;;;;;;;;;;;24.50;99.90;;;;;;5018160;28;19997;-48
2023/09/26 01:00:06;;;;;;;;;;;24.50;99.90;;;;;;5036007;28;20274;-48
2023/09/26 01:02:32;;;;;;;;;;;24.50;99.90;;;;;;5018860;28;19963;-48
2023/09/26 01:04:59;;;;;;;;;;;24.50;99.90;;;;;;5018269;28;19905;-48
2023/09/26 01:07:25;;;;;;;;;;;24.50;99.90;;;;;;5018026;28;20375;-48
2023/09/26 01:09:51;;;;;;;;;;;24.50;99.90;;;;;;5035747;28;19909;-48
2023/09/26 01:12:16;;;;;;;;;;;24.50;99.90;;;;;;5035738;28;20255;-48
2023/09/26 01:14:42;;;;;;;;;;;24.50;99.90;;;;;;5035778;28;19905;-48
2023/09/26 01:17:08;;;;;;;;;;;24.50;99.90;;;;;;5035699;28;19905;-49
2023/09/26 01:19:34;;;;;;;;;;;24.50;99.90;;;;;;5035879;28;19905;-48
2023/09/26 01:22:00;;;;;;;;;;;24.50;99.90;;;;;;5035785;28;20008;-48
2023/09/26 01:24:25;;;;;;;;;;;24.50;99.90;;;;;;5035612;28;19995;-49
2023/09/26 01:26:51;;;;;;;;;;;24.50;99.90;;;;;;5035509;28;20287;-48
2023/09/26 01:29:16;;;;;;;;;;;24.50;99.90;;;;;;5035517;28;20012;-48
2023/09/26 01:31:42;;;;;;;;;;;24.50;99.90;;;;;;5015941;28;20354;-48
2023/09/26 01:34:08;;;;;;;;;;;24.50;99.90;;;;;;5014835;28;19905;-48
2023/09/26 01:36:33;;;;;;;;;;;24.50;99.90;;;;;;5014988;28;19905;-48
2023/09/26 01:38:59;;;;;;;;;;;24.50;99.90;;;;;;5015069;28;19905;-49
2023/09/26 01:41:25;;;;;;;;;;;24.50;99.90;;;;;;5015318;28;20000;-48
2023/09/26 01:43:51;;;;;;;;;;;24.50;99.90;;;;;;5014714;28;19941;-49
2023/09/26 01:46:20;;;;;;;;;;;24.50;99.90;;;;;;5015541;28;19951;-48
2023/09/26 01:48:46;;;;;;;;;;;24.50;99.90;;;;;;5014021;28;20347;-48
2023/09/26 01:51:12;;;;;;;;;;;24.50;99.90;;;;;;5015349;28;19955;-48
2023/09/26 01:53:38;;;;;;;;;;;24.50;99.90;;;;;;5015279;28;20319;-48
2023/09/26 01:56:03;;;;;;;;;;;24.50;99.90;;;;;;5015357;28;19959;-48
2023/09/26 01:58:29;;;;;;;;;;;24.50;99.90;;;;;;5015186;28;19906;-48
2023/09/26 02:00:54;;;;;;;;;;;24.50;99.90;;;;;;5015439;28;19971;-48
2023/09/26 02:03:21;;;;;;;;;;;24.50;99.90;;;;;;5015037;28;19905;-47
2023/09/26 02:05:47;;;;;;;;;;;24.50;99.90;;;;;;5015082;28;19906;-48
2023/09/26 02:08:15;;;;;;;;;;;24.50;99.90;;;;;;5014883;28;19905;-48
2023/09/26 02:10:41;;;;;;;;;;;24.50;99.90;;;;;;5014967;28;20322;-48
2023/09/26 02:13:06;;;;;;;;;;;24.50;99.90;;;;;;5015194;28;19905;-48
2023/09/26 02:15:32;;;;;;;;;;;24.50;99.90;;;;;;5014795;28;19905;-48
2023/09/26 02:17:58;;;;;;;;;;;24.50;99.90;;;;;;5014853;28;19963;-48
2023/09/26 02:20:23;;;;;;;;;;;24.50;99.90;;;;;;5014723;28;19913;-48
2023/09/26 02:22:50;;;;;;;;;;;24.50;99.90;;;;;;5014775;28;20299;-48
2023/09/26 02:25:16;;;;;;;;;;;24.50;99.90;;;;;;5014550;28;19916;-48
2023/09/26 02:27:42;;;;;;;;;;;24.50;99.90;;;;;;5014586;28;20345;-48
2023/09/26 02:30:09;;;;;;;;;;;24.50;99.90;;;;;;5014594;28;19905;-48
2023/09/26 02:32:35;;;;;;;;;;;24.50;99.90;;;;;;5014607;28;19906;-49
2023/09/26 02:35:02;;;;;;;;;;;24.50;99.90;;;;;;4996785;28;19912;-48
2023/09/26 02:37:27;;;;;;;;;;;24.50;99.90;;;;;;4996858;28;19905;-48
2023/09/26 02:39:53;;;;;;;;;;;24.50;99.90;;;;;;5014220;28;20394;-48
2023/09/26 02:42:19;;;;;;;;;;;24.50;99.90;;;;;;5014339;28;20364;-49
2023/09/26 02:44:44;;;;;;;;;;;24.40;99.90;;;;;;5014440;28;20271;-48
2023/09/26 02:47:10;;;;;;;;;;;24.40;99.90;;;;;;5014329;28;19905;-48
2023/09/26 02:49:35;;;;;;;;;;;24.40;99.90;;;;;;5014547;28;19906;-48
2023/09/26 02:52:01;;;;;;;;;;;24.40;99.90;;;;;;5014023;28;19909;-49
2023/09/26 02:54:27;;;;;;;;;;;24.40;99.90;;;;;;5014009;28;20264;-48
2023/09/26 02:56:52;;;;;;;;;;;24.40;99.90;;;;;;5012639;28;19996;-47
2023/09/26 02:59:18;;;;;;;;;;;24.30;99.90;;;;;;5013788;28;19948;-48
2023/09/26 03:01:43;;;;;;;;;;;24.40;99.90;;;;;;5014345;28;20044;-47
2023/09/26 03:04:09;;;;;;;;;;;24.40;99.90;;;;;;5012727;28;19912;-48
2023/09/26 03:06:35;;;;;;;;;;;24.40;99.90;;;;;;5014002;28;20239;-47
2023/09/26 03:09:00;;;;;;;;;;;24.50;99.90;;;;;;5014145;28;20288;-48
2023/09/26 03:11:26;;;;;;;;;;;24.50;99.90;;;;;;5020274;28;19910;-47
2023/09/26 03:13:51;;;;;;;;;;;24.50;99.90;;;;;;5023652;28;19909;-47
2023/09/26 03:16:18;;;;;;;;;;;24.50;99.90;;;;;;5032579;28;19971;-48
2023/09/26 03:18:44;;;;;;;;;;;24.60;99.90;;;;;;5033331;28;19905;-48
2023/09/26 03:21:11;;;;;;;;;;;24.70;99.90;;;;;;5033294;28;19935;-48
2023/09/26 03:23:37;;;;;;;;;;;24.70;99.90;;;;;;5033520;28;19906;-48
2023/09/26 03:26:08;;;;;;;;;;;24.70;99.90;;;;;;5033192;28;19912;-47
2023/09/26 03:28:34;;;;;;;;;;;24.70;99.90;;;;;;5033106;28;19905;-48
2023/09/26 03:31:03;;;;;;;;;;;24.80;99.90;;;;;;5033126;28;20264;-48
2023/09/26 03:33:28;;;;;;;;;;;24.70;99.90;;;;;;5033189;28;19967;-48
2023/09/26 03:35:54;;;;;;;;;;;24.80;99.90;;;;;;5033081;28;20330;-48
2023/09/26 03:38:21;;;;;;;;;;;24.80;99.90;;;;;;5033022;28;19909;-50
2023/09/26 03:40:46;;;;;;;;;;;24.80;99.90;;;;;;5032798;28;19920;-47
2023/09/26 03:43:12;;;;;;;;;;;24.80;99.90;;;;;;5033115;28;20286;-48
2023/09/26 03:45:37;;;;;;;;;;;24.90;99.90;;;;;;5033289;28;19912;-48
2023/09/26 03:48:03;;;;;;;;;;;24.90;99.90;;;;;;5032927;28;19911;-48
2023/09/26 03:50:29;;;;;;;;;;;24.90;99.90;;;;;;5031894;28;19913;-49
2023/09/26 03:52:54;;;;;;;;;;;24.90;99.90;;;;;;5033415;28;19912;-47
2023/09/26 03:55:20;;;;;;;;;;;24.90;99.90;;;;;;5032060;28;20374;-47
2023/09/26 03:57:47;;;;;;;;;;;24.90;99.90;;;;;;5031526;28;20271;-48
2023/09/26 04:00:15;;;;;;;;;;;24.90;99.90;;;;;;5032059;28;20317;-48
2023/09/26 04:02:41;;;;;;;;;;;24.90;99.90;;;;;;5033297;28;19924;-47
2023/09/26 04:05:07;;;;;;;;;;;24.90;99.90;;;;;;5032458;28;19905;-48
2023/09/26 04:07:33;;;;;;;;;;;24.90;99.90;;;;;;5032625;28;20419;-48
2023/09/26 04:09:58;;;;;;;;;;;24.90;99.90;;;;;;5032752;28;19911;-48
2023/09/26 04:12:24;;;;;;;;;;;24.90;99.90;;;;;;5031924;28;19913;-47
2023/09/26 04:14:49;;;;;;;;;;;24.90;99.90;;;;;;5032583;28;20375;-48
2023/09/26 04:17:15;;;;;;;;;;;24.90;99.90;;;;;;5032501;28;19995;-47
2023/09/26 04:19:41;;;;;;;;;;;24.90;99.90;;;;;;5014910;28;19905;-48
2023/09/26 04:22:06;;;;;;;;;;;25.00;99.90;;;;;;5032507;28;19913;-48
2023/09/26 04:24:32;;;;;;;;;;;25.00;99.90;;;;;;5032473;28;19951;-48
2023/09/26 04:26:57;;;;;;;;;;;24.90;99.90;;;;;;5032329;28;20411;-47
2023/09/26 04:29:23;;;;;;;;;;;25.00;99.90;;;;;;5032437;28;19905;-48
2023/09/26 04:31:49;;;;;;;;;;;24.90;99.90;;;;;;5032459;28;19955;-48
2023/09/26 04:34:14;;;;;;;;;;;24.90;99.90;;;;;;5032393;28;19906;-48
2023/09/26 04:36:40;;;;;;;;;;;24.90;99.90;;;;;;5032469;28;19912;-48
2023/09/26 04:39:08;;;;;;;;;;;25.00;99.90;;;;;;5032296;28;20402;-47
2023/09/26 04:41:34;;;;;;;;;;;24.90;99.90;;;;;;5032262;28;19913;-47
2023/09/26 04:43:59;;;;;;;;;;;24.90;99.90;;;;;;5014599;28;19911;-48
2023/09/26 04:46:25;;;;;;;;;;;24.90;99.90;;;;;;5032192;28;20283;-48
2023/09/26 04:48:50;;;;;;;;;;;24.90;99.90;;;;;;5032252;28;19938;-48
2023/09/26 04:51:17;;;;;;;;;;;24.90;99.90;;;;;;5032155;28;19909;-48
2023/09/26 04:53:43;;;;;;;;;;;24.90;99.90;;;;;;5032356;28;19905;-48
2023/09/26 04:56:08;;;;;;;;;;;24.90;99.90;;;;;;5032181;28;19906;-48
2023/09/26 04:58:34;;;;;;;;;;;24.90;99.90;;;;;;5032207;28;19912;-48
2023/09/26 05:01:09;;;;;;;;;;;24.90;99.90;;;;;;5031901;28;19917;-48
2023/09/26 05:03:35;;;;;;;;;;;24.90;99.90;;;;;;5032511;28;19936;-48
2023/09/26 05:06:00;;;;;;;;;;;24.90;99.90;;;;;;5032176;28;19904;-47
2023/09/26 05:08:26;;;;;;;;;;;24.90;99.90;;;;;;5014322;28;20417;-47
2023/09/26 05:10:52;;;;;;;;;;;24.90;99.90;;;;;;5032090;28;19905;-48
2023/09/26 05:13:18;;;;;;;;;;;24.90;99.90;;;;;;5032092;28;19952;-48
2023/09/26 05:15:43;;;;;;;;;;;24.90;99.90;;;;;;5031976;28;19913;-46
2023/09/26 05:18:09;;;;;;;;;;;24.90;99.90;;;;;;5032040;28;20268;-47
2023/09/26 05:20:35;;;;;;;;;;;24.90;99.90;;;;;;5031911;28;20363;-50
2023/09/26 05:23:02;;;;;;;;;;;24.90;99.90;;;;;;5015558;28;19905;-50
2023/09/26 05:25:28;;;;;;;;;;;24.90;99.90;;;;;;5035576;28;19909;-50
2023/09/26 05:27:54;;;;;;;;;;;24.90;99.90;;;;;;5035487;28;20378;-48
2023/09/26 05:30:20;;;;;;;;;;;24.90;99.90;;;;;;5035520;28;19905;-49
2023/09/26 05:32:45;;;;;;;;;;;24.90;99.90;;;;;;5035565;28;19905;-47
2023/09/26 05:35:11;;;;;;;;;;;24.90;99.90;;;;;;5035438;28;19944;-48
2023/09/26 05:37:37;;;;;;;;;;;24.90;99.90;;;;;;5035352;28;19988;-48
2023/09/26 05:40:06;;;;;;;;;;;24.90;99.90;;;;;;5035164;28;19908;-48
2023/09/26 05:42:35;;;;;;;;;;;24.90;99.90;;;;;;5035207;28;19913;-48
2023/09/26 05:45:05;;;;;;;;;;;24.90;99.90;;;;;;5035211;28;20262;-48
2023/09/26 05:47:30;;;;;;;;;;;24.90;99.90;;;;;;5035032;28;20003;-48
2023/09/26 05:49:56;;;;;;;;;;;24.90;99.90;;;;;;5035090;28;19944;-48
2023/09/26 05:52:22;;;;;;;;;;;24.90;99.90;;;;;;5035077;28;20007;-48
2023/09/26 05:54:48;;;;;;;;;;;24.90;99.90;;;;;;5035102;28;19905;-48
2023/09/26 05:57:14;;;;;;;;;;;24.80;99.90;;;;;;5035047;28;19905;-48
2023/09/26 05:59:39;;;;;;;;;;;24.80;99.90;;;;;;5034806;28;19955;-47
2023/09/26 06:02:07;;;;;;;;;;;24.80;99.90;;;;;;5034560;28;20345;-48
2023/09/26 06:04:32;;;;;;;;;;;24.80;99.90;;;;;;5034822;28;19905;-48
2023/09/26 06:06:58;;;;;;;;;;;24.80;99.90;;;;;;5034801;28;19905;-48
2023/09/26 06:09:24;;;;;;;;;;;24.80;99.90;;;;;;5034835;28;19948;-48
2023/09/26 06:11:49;;;;;;;;;;;24.80;99.90;;;;;;5034961;28;19905;-48
2023/09/26 06:14:15;;;;;;;;;;;24.80;99.90;;;;;;5035034;28;19905;-48
2023/09/26 06:16:40;;;;;;;;;;;24.80;99.90;;;;;;5034589;28;19909;-49
2023/09/26 06:19:06;;;;;;;;;;;24.70;99.90;;;;;;5034617;28;19905;-49
2023/09/26 06:21:32;;;;;;;;;;;24.80;99.90;;;;;;5034488;28;19979;-49
2023/09/26 06:23:57;;;;;;;;;;;24.70;99.90;;;;;;5034554;28;19967;-48
2023/09/26 06:26:23;;;;;;;;;;;24.80;99.90;;;;;;5034440;28;19967;-48
2023/09/26 06:28:49;;;;;;;;;;;24.80;99.90;;;;;;5034449;28;19938;-48
2023/09/26 06:31:14;;;;;;;;;;;24.70;99.90;;;;;;5034338;28;20302;-48
2023/09/26 06:33:40;;;;;;;;;;;24.70;99.90;;;;;;5034154;28;20261;-48
2023/09/26 06:36:17;;;;;;;;;;;24.70;99.90;;;;;;5033795;28;19911;-49
2023/09/26 06:38:43;;;;;;;;;;;24.70;99.90;;;;;;5033971;28;19959;-48
2023/09/26 06:41:09;;;;;;;;;;;24.70;99.90;;;;;;5033940;28;19913;-48
2023/09/26 06:43:37;;;;;;;;;;;24.80;99.90;;;;;;5033990;28;19992;-48
2023/09/26 06:46:04;;;;;;;;;;;24.70;99.90;;;;;;5034011;28;19905;-48
2023/09/26 06:48:30;;;;;;;;;;;24.70;99.90;;;;;;5034006;28;19912;-48
2023/09/26 06:50:55;;;;;;;;;;;24.80;99.90;;;;;;5033939;28;19905;-48
2023/09/26 06:53:22;;;;;;;;;;;24.80;99.90;;;;;;5034134;28;20394;-48
2023/09/26 06:55:48;;;;;;;;;;;24.80;99.90;;;;;;5033971;28;19905;-49
2023/09/26 06:58:13;;;;;;;;;;;24.80;99.90;;;;;;5033788;28;19905;-48
2023/09/26 07:00:39;;;;;;;;;;;24.80;99.90;;;;;;5033495;28;19913;-48
2023/09/26 07:03:05;;;;;;;;;;;24.80;99.90;;;;;;5033660;28;19913;-49
2023/09/26 07:05:31;;;;;;;;;;;24.80;99.90;;;;;;5033593;28;19951;-48
2023/09/26 07:07:58;;;;;;;;;;;24.90;99.90;;;;;;5033816;28;19949;-48
2023/09/26 07:10:24;;;;;;;;;;;24.90;99.90;;;;;;5033601;28;19905;-48
2023/09/26 07:12:51;;;;;;;;;;;24.90;99.90;;;;;;5033731;28;20003;-49
2023/09/26 07:15:18;;;;;;;;;;;25.00;99.90;;;;;;5033444;28;19935;-48
2023/09/26 07:17:44;;;;;;;;;;;25.00;99.90;;;;;;5033274;28;20367;-48
2023/09/26 07:20:16;;;;;;;;;;;25.00;99.90;;;;;;5033239;28;19909;-48
2023/09/26 07:22:41;;;;;;;;;;;25.00;99.90;;;;;;5033342;28;19916;-48
2023/09/26 07:25:07;;;;;;;;;;;25.10;99.90;;;;;;5033222;28;19909;-49
2023/09/26 07:27:33;;;;;;;;;;;25.10;99.90;;;;;;5033283;28;19905;-49
2023/09/26 07:29:58;;;;;;;;;;;25.20;99.90;;;;;;5033313;28;20343;-49
2023/09/26 07:32:24;;;;;;;;;;;25.30;99.90;;;;;;5033262;28;19909;-49
2023/09/26 07:34:50;;;;;;;;;;;25.30;99.90;;;;;;5033281;28;19912;-49
2023/09/26 07:37:15;;;;;;;;;;;25.30;99.90;;;;;;5033000;28;19912;-49
2023/09/26 07:39:49;;;;;;;;;;;25.40;99.90;;;;;;5032854;28;19908;-49
2023/09/26 07:42:14;;;;;;;;;;;25.40;99.90;;;;;;5032964;28;19917;-49
2023/09/26 07:44:40;;;;;;;;;;;25.50;99.90;;;;;;5032976;28;19912;-49
2023/09/26 07:47:05;;;;;;;;;;;25.50;99.90;;;;;;5032031;28;19905;-49
2023/09/26 07:49:31;;;;;;;;;;;25.60;99.90;;;;;;5032976;28;19905;-49
2023/09/26 07:51:57;;;;;;;;;;;25.60;99.90;;;;;;5032842;28;20251;-49
2023/09/26 07:54:22;;;;;;;;;;;25.60;99.90;;;;;;5032942;28;19928;-49
2023/09/26 07:56:48;;;;;;;;;;;25.70;99.90;;;;;;5032827;28;19928;-49
2023/09/26 07:59:13;;;;;;;;;;;25.70;99.90;;;;;;5032765;28;19905;-49
2023/09/26 08:01:40;;;;;;;;;;;25.80;99.90;;;;;;5032479;28;19924;-49
2023/09/26 08:04:07;;;;;;;;;;;25.80;99.90;;;;;;5032728;28;19913;-49
2023/09/26 08:06:33;;;;;;;;;;;25.80;99.90;;;;;;5032654;28;20260;-49
2023/09/26 08:08:58;;;;;;;;;;;25.90;99.90;;;;;;5032700;28;19912;-49
2023/09/26 08:11:27;;;;;;;;;;;25.90;99.90;;;;;;5032811;28;20481;-48
2023/09/26 08:13:54;;;;;;;;;;;26.00;99.90;;;;;;5032725;28;19905;-49
2023/09/26 08:16:21;;;;;;;;;;;26.00;99.90;;;;;;5032334;28;19905;-48
2023/09/26 08:18:47;;;;;;;;;;;26.00;99.90;;;;;;5032462;28;20378;-49
2023/09/26 08:21:14;;;;;;;;;;;26.00;99.90;;;;;;5014608;28;19999;-48
2023/09/26 08:23:39;;;;;;;;;;;26.10;99.90;;;;;;5032457;28;19912;-49
2023/09/26 08:26:06;;;;;;;;;;;26.10;99.90;;;;;;5032382;28;19905;-48
2023/09/26 08:28:32;;;;;;;;;;;26.20;99.90;;;;;;5032406;28;19909;-49
2023/09/26 08:31:09;;;;;;;;;;;26.20;99.90;;;;;;5032393;28;20402;-48
2023/09/26 08:33:36;;;;;;;;;;;26.20;99.90;;;;;;5032312;28;19905;-49
2023/09/26 08:36:02;;;;;;;;;;;26.30;99.90;;;;;;5032309;28;19991;-49
2023/09/26 08:38:27;;;;;;;;;;;26.30;99.90;;;;;;5014650;28;19909;-49
2023/09/26 08:40:56;;;;;;;;;;;26.40;99.90;;;;;;5032343;28;19913;-48
2023/09/26 08:43:25;;;;;;;;;;;26.40;99.90;;;;;;5032338;28;20397;-48
2023/09/26 08:45:51;;;;;;;;;;;26.40;99.90;;;;;;5032305;28;19936;-48
2023/09/26 08:48:17;;;;;;;;;;;26.50;99.90;;;;;;5032088;28;20371;-48
2023/09/26 08:50:42;;;;;;;;;;;26.50;99.90;;;;;;5032181;28;19905;-49
2023/09/26 08:53:08;;;;;;;;;;;26.60;99.90;;;;;;5032036;28;19905;-49
2023/09/26 08:55:34;;;;;;;;;;;26.60;99.90;;;;;;5032014;28;19959;-48
2023/09/26 08:58:00;;;;;;;;;;;26.60;99.90;;;;;;5033705;28;19963;-49
2023/09/26 09:00:26;;;;;;;;;;;26.70;99.90;;;;;;5035997;28;20374;-48
2023/09/26 09:02:52;;;;;;;;;;;26.70;99.90;;;;;;5035984;28;19967;-49
2023/09/26 09:05:18;;;;;;;;;;;26.80;99.90;;;;;;5035761;28;20386;-49
2023/09/26 09:07:44;;;;;;;;;;;26.80;99.90;;;;;;5035906;28;19912;-49
2023/09/26 09:10:11;;;;;;;;;;;26.80;99.90;;;;;;5035841;28;19905;-49
2023/09/26 09:12:38;;;;;;;;;;;26.90;99.90;;;;;;5035849;28;20019;-49
2023/09/26 09:15:17;;;;;;;;;;;26.90;99.90;;;;;;5035705;28;19905;-49
2023/09/26 09:17:43;;;;;;;;;;;27.00;99.90;;;;;;5035611;28;20367;-49
2023/09/26 09:20:09;;;;;;;;;;;27.00;99.90;;;;;;5035463;28;19912;-49
2023/09/26 09:22:35;;;;;;;;;;;27.10;99.90;;;;;;5035676;28;19959;-49
2023/09/26 09:25:02;;;;;;;;;;;27.10;99.90;;;;;;5035513;28;19909;-49
2023/09/26 09:27:27;;;;;;;;;;;27.20;99.90;;;;;;5035722;28;20286;-49
2023/09/26 09:30:07;;;;;;;;;;;27.20;99.90;;;;;;5035361;28;19912;-49
2023/09/26 09:32:33;;;;;;;;;;;27.30;99.90;;;;;;5035502;28;19905;-49
2023/09/26 09:34:59;;;;;;;;;;;27.30;99.90;;;;;;5035438;28;20003;-49
2023/09/26 09:37:24;;;;;;;;;;;27.40;99.90;;;;;;5035530;28;19948;-48
2023/09/26 09:39:51;;;;;;;;;;;27.40;99.90;;;;;;5035277;28;19996;-49
2023/09/26 09:42:17;;;;;;;;;;;27.40;99.90;;;;;;5035134;28;20426;-49
2023/09/26 09:44:42;;;;;;;;;;;27.40;99.90;;;;;;5035243;28;19909;-49
2023/09/26 09:47:08;;;;;;;;;;;27.50;99.90;;;;;;5035028;28;20000;-49
2023/09/26 09:49:40;;;;;;;;;;;27.60;99.90;;;;;;5035223;28;19958;-50
2023/09/26 09:52:08;;;;;;;;;;;27.60;99.90;;;;;;5035000;28;19992;-49
2023/09/26 09:54:36;;;;;;;;;;;27.60;99.90;;;;;;5034927;28;19912;-49
2023/09/26 09:57:06;;;;;;;;;;;27.70;99.90;;;;;;5034953;28;19908;-49
2023/09/26 09:59:33;;;;;;;;;;;27.70;99.90;;;;;;5034893;28;19912;-49
2023/09/26 10:02:00;;;;;;;;;;;27.80;99.90;;;;;;5034890;28;20407;-49
2023/09/26 10:04:26;;;;;;;;;;;27.80;99.90;;;;;;5034839;28;19905;-49
2023/09/26 10:06:53;;;;;;;;;;;27.80;99.90;;;;;;5034800;28;20393;-49
2023/09/26 10:09:22;;;;;;;;;;;27.90;99.90;;;;;;5033727;28;20310;-49
2023/09/26 10:11:49;;;;;;;;;;;27.90;99.90;;;;;;5034702;28;19905;-49
2023/09/26 10:14:20;;;;;;;;;;;28.00;99.90;;;;;;5034736;28;19904;-49
2023/09/26 10:16:46;;;;;;;;;;;28.00;99.90;;;;;;5034647;28;20252;-49
2023/09/26 10:19:11;;;;;;;;;;;28.10;99.90;;;;;;5034525;28;19913;-49
2023/09/26 10:21:39;;;;;;;;;;;28.10;99.90;;;;;;5034262;28;20003;-49
2023/09/26 10:24:04;;;;;;;;;;;28.20;99.90;;;;;;5032946;28;19905;-49
2023/09/26 10:26:30;;;;;;;;;;;28.20;99.90;;;;;;5016553;28;20275;-49
2023/09/26 10:29:00;;;;;;;;;;;28.30;99.90;;;;;;5034228;28;19905;-49
2023/09/26 10:31:28;;;;;;;;;;;28.30;99.90;;;;;;5034309;28;20430;-49
2023/09/26 10:33:56;;;;;;;;;;;28.40;99.90;;;;;;5034337;28;20359;-49
2023/09/26 10:36:22;;;;;;;;;;;28.40;99.90;;;;;;5034178;28;20019;-49
2023/09/26 10:39:00;;;;;;;;;;;28.40;99.90;;;;;;5034224;28;20382;-48
2023/09/26 10:41:26;;;;;;;;;;;28.50;99.90;;;;;;5034012;28;20387;-49
2023/09/26 10:43:52;;;;;;;;;;;28.50;99.90;;;;;;5016314;28;19935;-49
2023/09/26 10:46:18;;;;;;;;;;;28.50;99.90;;;;;;5034118;28;20271;-49
2023/09/26 10:48:43;;;;;;;;;;;28.60;99.90;;;;;;5034095;28;19912;-49
2023/09/26 10:51:09;;;;;;;;;;;28.60;99.90;;;;;;5022102;28;20026;-48
2023/09/26 10:53:36;;;;;;;;;;;28.70;99.90;;;;;;5014117;28;19905;-48
2023/09/26 10:56:03;;;;;;;;;;;28.80;99.90;;;;;;5025114;28;19932;-49
2023/09/26 10:58:31;;;;;;;;;;;28.90;99.90;;;;;;5021921;28;19917;-49
2023/09/26 11:00:57;;;;;;;;;;;29.00;99.90;;;;;;5005431;28;19939;-49
2023/09/26 11:03:23;;;;;;;;;;;29.00;99.90;;;;;;5024193;28;19913;-50
2023/09/26 11:05:50;;;;;;;;;;;29.00;99.90;;;;;;5022463;28;20012;-49
2023/09/26 11:08:15;;;;;;;;;;;29.10;99.90;;;;;;5023246;28;19912;-49
2023/09/26 11:10:45;;;;;;;;;;;29.10;99.90;;;;;;5022128;28;19909;-48
2023/09/26 11:13:11;;;;;;;;;;;29.10;99.90;;;;;;5022159;28;19913;-48
2023/09/26 11:15:39;;;;;;;;;;;29.10;99.90;;;;;;5025696;28;20391;-49
2023/09/26 11:18:09;;;;;;;;;;;29.10;99.90;;;;;;5011347;28;19988;-47
2023/09/26 11:20:34;;;;;;;;;;;29.00;99.90;;;;;;5036715;28;20015;-46
2023/09/26 11:23:00;;;;;;;;;;;29.10;99.90;;;;;;5026366;28;20439;-48
2023/09/26 11:25:26;;;;;;;;;;;29.10;99.90;;;;;;5032090;28;19927;-49
2023/09/26 11:27:51;;;;;;;;;;;29.10;99.90;;;;;;5032547;28;19908;-48
2023/09/26 11:30:18;;;;;;;;;;;29.10;99.90;;;;;;5032220;28;19928;-48
2023/09/26 11:32:49;;;;;;;;;;;29.20;99.90;;;;;;5030436;28;19912;-48
2023/09/26 11:35:15;;;;;;;;;;;29.20;99.90;;;;;;5029259;28;19925;-48
2023/09/26 11:37:40;;;;;;;;;;;29.20;99.90;;;;;;5032387;28;19909;-49
2023/09/26 11:40:11;;;;;;;;;;;29.20;99.90;;;;;;5031901;28;19935;-48
2023/09/26 11:42:46;;;;;;;;;;;29.20;99.90;;;;;;5028947;28;20256;-49
2023/09/26 11:45:29;;;;;;;;;;;29.30;99.90;;;;;;5031077;28;19987;-49
2023/09/26 11:47:56;;;;;;;;;;;29.30;99.90;;;;;;5029459;28;19920;-49
2023/09/26 11:50:22;;;;;;;;;;;29.30;99.90;;;;;;5031737;28;19909;-49
2023/09/26 11:52:48;;;;;;;;;;;29.30;99.90;;;;;;5031749;28;19905;-49
2023/09/26 11:55:17;;;;;;;;;;;29.40;99.90;;;;;;5032227;28;19912;-50
2023/09/26 11:57:48;;;;;;;;;;;29.40;99.90;;;;;;5030169;28;19905;-49
2023/09/26 12:00:17;;;;;;;;;;;29.50;99.90;;;;;;5025129;28;19941;-49
2023/09/26 12:02:43;;;;;;;;;;;29.50;99.90;;;;;;5031591;28;19927;-48
2023/09/26 12:05:11;;;;;;;;;;;29.50;99.90;;;;;;5034895;28;19909;-49
2023/09/26 12:07:37;;;;;;;;;;;29.50;99.90;;;;;;5026238;28;20001;-49
2023/09/26 12:10:04;;;;;;;;;;;29.50;99.90;;;;;;5009534;28;20322;-49
2023/09/26 12:12:30;;;;;;;;;;;29.50;99.90;;;;;;5027874;28;19905;-49
2023/09/26 12:15:15;;;;;;;;;;;29.60;99.90;;;;;;5008656;28;19913;-49
2023/09/26 12:17:40;;;;;;;;;;;29.60;99.90;;;;;;5029602;28;20309;-49
2023/09/26 12:20:09;;;;;;;;;;;29.60;99.90;;;;;;5025377;28;19914;-48
2023/09/26 12:22:35;;;;;;;;;;;29.60;99.90;;;;;;5026738;28;19909;-49
2023/09/26 12:25:01;;;;;;;;;;;29.60;99.90;;;;;;5026285;28;20032;-49
2023/09/26 12:27:27;;;;;;;;;;;29.60;99.90;;;;;;5010806;28;20327;-49
2023/09/26 12:29:52;;;;;;;;;;;29.60;99.90;;;;;;5026516;28;19906;-49
2023/09/26 12:32:18;;;;;;;;;;;29.60;99.90;;;;;;5026388;28;19909;-48
2023/09/26 12:34:44;;;;;;;;;;;29.60;99.90;;;;;;5034043;28;20295;-49
2023/09/26 12:37:09;;;;;;;;;;;29.60;99.90;;;;;;5027497;28;19964;-49
2023/09/26 12:39:35;;;;;;;;;;;29.70;99.90;;;;;;5035187;28;19948;-49
2023/09/26 12:42:01;;;;;;;;;;;29.70;99.90;;;;;;4998641;28;19921;-49
2023/09/26 12:44:28;;;;;;;;;;;29.70;99.90;;;;;;5031908;28;20004;-49
2023/09/26 12:46:53;;;;;;;;;;;29.70;99.90;;;;;;5033810;28;19951;-49
2023/09/26 12:49:19;;;;;;;;;;;29.70;99.90;;;;;;5028433;28;19905;-49
2023/09/26 12:51:45;;;;;;;;;;;29.70;99.90;;;;;;5033644;28;20272;-50
2023/09/26 12:54:11;;;;;;;;;;;29.70;99.90;;;;;;5031123;28;19914;-48
2023/09/26 12:56:37;;;;;;;;;;;29.70;99.90;;;;;;5030070;28;20337;-49
2023/09/26 12:59:03;;;;;;;;;;;29.70;99.90;;;;;;5029874;28;19908;-51
2023/09/26 13:01:29;;;;;;;;;;;29.70;99.90;;;;;;5009275;28;20342;-48
2023/09/26 13:03:54;;;;;;;;;;;29.70;99.90;;;;;;5011388;28;20008;-49
2023/09/26 13:06:20;;;;;;;;;;;29.60;99.90;;;;;;5006312;28;20000;-49
2023/09/26 13:08:46;;;;;;;;;;;29.60;99.90;;;;;;5010147;28;20278;-49
2023/09/26 13:11:11;;;;;;;;;;;29.60;99.90;;;;;;5010773;28;19905;-48
2023/09/26 13:13:37;;;;;;;;;;;29.50;99.90;;;;;;5011389;28;19916;-49
2023/09/26 13:16:04;;;;;;;;;;;29.50;99.90;;;;;;5014891;28;20371;-49
2023/09/26 13:18:30;;;;;;;;;;;29.40;99.90;;;;;;5013746;28;19956;-49
2023/09/26 13:20:56;;;;;;;;;;;29.50;99.90;;;;;;5014679;28;19921;-49
2023/09/26 13:23:21;;;;;;;;;;;29.50;99.90;;;;;;5014983;28;20283;-48
2023/09/26 13:25:47;;;;;;;;;;;29.50;99.90;;;;;;5013597;28;19906;-49
2023/09/26 13:28:13;;;;;;;;;;;29.50;99.90;;;;;;5010510;28;19909;-48
2023/09/26 13:30:39;;;;;;;;;;;29.50;99.90;;;;;;5011444;28;19910;-49
2023/09/26 13:33:05;;;;;;;;;;;29.50;99.90;;;;;;5012394;28;20322;-49
2023/09/26 13:35:31;;;;;;;;;;;29.40;99.90;;;;;;5010526;28;19909;-49
2023/09/26 13:37:56;;;;;;;;;;;29.40;99.90;;;;;;5007654;28;19964;-49
2023/09/26 13:40:22;;;;;;;;;;;29.40;99.90;;;;;;5006430;28;19932;-49
2023/09/26 13:42:48;;;;;;;;;;;29.40;99.90;;;;;;5013584;28;20470;-49
2023/09/26 13:45:14;;;;;;;;;;;29.40;99.90;;;;;;5012338;28;19995;-49
2023/09/26 13:47:40;;;;;;;;;;;29.40;99.90;;;;;;5011186;28;19905;-49
2023/09/26 13:50:05;;;;;;;;;;;29.40;99.90;;;;;;5018490;28;19920;-50
2023/09/26 13:52:31;;;;;;;;;;;29.50;99.90;;;;;;5030851;28;19952;-49
2023/09/26 13:54:57;;;;;;;;;;;29.40;99.90;;;;;;5015046;28;20000;-49
2023/09/26 13:57:23;;;;;;;;;;;29.50;99.90;;;;;;5019428;28;19910;-49
2023/09/26 13:59:50;;;;;;;;;;;29.50;99.90;;;;;;5019235;28;20007;-49
2023/09/26 14:02:15;;;;;;;;;;;29.50;99.90;;;;;;5033242;28;19929;-49
2023/09/26 14:04:42;;;;;;;;;;;29.50;99.90;;;;;;5019572;28;20314;-49
2023/09/26 14:07:09;;;;;;;;;;;29.50;99.90;;;;;;5029664;28;20383;-49
2023/09/26 14:09:35;;;;;;;;;;;29.60;99.90;;;;;;5027474;28;19913;-49
2023/09/26 14:12:03;;;;;;;;;;;29.60;99.90;;;;;;5042070;28;19908;-49